Time;durP1;ratioP1;P1;durP2;ratioP2;P2;SDS_P1;SDS_P2;PMS_P1;PMS_P2;Temp;Humidity;BMP_temperature;BMP_pressure;BME280_temperature;BME280_humidity;BME280_pressure;Samples;Min_cycle;Max_cycle;Signal;HPM_P1;HPM_P2
2022/06/15 00:02:21;;;;;;;9.13;3.03;;;17.50;98.60;;;;;;5050471;28;20021;-70
2022/06/15 00:04:47;;;;;;;2.88;2.60;;;17.50;98.00;;;;;;5046922;28;20035;-70
2022/06/15 00:07:13;;;;;;;8.10;2.95;;;17.50;97.30;;;;;;5049952;28;20500;-70
2022/06/15 00:09:38;;;;;;;4.95;3.30;;;17.50;98.00;;;;;;5048724;28;20029;-70
2022/06/15 00:12:06;;;;;;;9.55;3.20;;;17.50;99.00;;;;;;5050345;28;20108;-70
2022/06/15 00:14:31;;;;;;;5.80;3.00;;;17.50;98.60;;;;;;5053144;28;20021;-69
2022/06/15 00:16:57;;;;;;;4.32;3.15;;;17.40;98.30;;;;;;5050055;28;20115;-70
2022/06/15 00:19:23;;;;;;;6.82;3.08;;;17.40;98.30;;;;;;5053331;28;20017;-69
2022/06/15 00:21:49;;;;;;;7.05;3.50;;;17.40;98.00;;;;;;5050543;28;20481;-70
2022/06/15 00:24:15;;;;;;;8.65;4.10;;;17.40;97.50;;;;;;5054505;28;20203;-70
2022/06/15 00:26:41;;;;;;;10.30;3.42;;;17.30;97.90;;;;;;5050270;28;20112;-70
2022/06/15 00:29:08;;;;;;;8.60;3.78;;;17.30;97.20;;;;;;5050165;28;20075;-70
2022/06/15 00:31:34;;;;;;;10.65;4.03;;;17.30;98.30;;;;;;5046794;28;20476;-70
2022/06/15 00:33:59;;;;;;;4.90;3.30;;;17.30;97.90;;;;;;5048517;28;20036;-70
2022/06/15 00:36:25;;;;;;;5.57;3.75;;;17.30;97.80;;;;;;5048137;28;21173;-70
2022/06/15 00:38:56;;;;;;;5.65;3.53;;;17.20;97.60;;;;;;5045332;28;20021;-70
2022/06/15 00:41:37;;;;;;;8.60;3.35;;;17.20;98.50;;;;;;5051795;28;20017;-71
2022/06/15 00:44:23;;;;;;;6.70;3.60;;;17.20;98.90;;;;;;5046448;28;20045;-71
2022/06/15 00:47:14;;;;;;;6.40;2.90;;;17.10;98.30;;;;;;5052708;28;20028;-70
2022/06/15 00:50:16;;;;;;;9.57;3.33;;;17.10;98.30;;;;;;5052419;28;20367;-71
2022/06/15 00:52:54;;;;;;;7.30;3.90;;;17.00;98.40;;;;;;5049983;28;20102;-70
2022/06/15 00:55:25;;;;;;;7.60;3.78;;;17.00;98.90;;;;;;5052779;28;20033;-70
2022/06/15 00:57:52;;;;;;;6.72;3.42;;;17.00;98.60;;;;;;5052438;28;20028;-70
2022/06/15 01:00:20;;;;;;;5.97;3.50;;;17.00;98.80;;;;;;5054704;28;20051;-71
2022/06/15 01:02:45;;;;;;;6.75;3.42;;;16.90;98.60;;;;;;5052220;28;20017;-71
2022/06/15 01:05:17;;;;;;;7.53;3.75;;;16.90;99.00;;;;;;5052490;28;20028;-71
2022/06/15 01:07:54;;;;;;;8.80;3.70;;;16.80;99.00;;;;;;5046879;28;20059;-70
2022/06/15 01:10:53;;;;;;;6.68;3.22;;;16.80;99.00;;;;;;5056923;28;20048;-70
2022/06/15 01:13:57;;;;;;;6.40;4.32;;;16.80;98.60;;;;;;5046200;28;20370;-70
2022/06/15 01:16:28;;;;;;;5.57;4.28;;;16.80;99.10;;;;;;5057573;28;20387;-70
2022/06/15 01:19:01;;;;;;;8.85;4.60;;;16.70;98.30;;;;;;5046177;28;20028;-70
2022/06/15 01:21:51;;;;;;;9.18;4.13;;;16.70;98.70;;;;;;5056808;28;20025;-70
2022/06/15 01:24:38;;;;;;;8.75;3.83;;;16.60;98.30;;;;;;5048026;28;20025;-70
2022/06/15 01:27:29;;;;;;;5.78;3.88;;;16.60;98.50;;;;;;5057033;28;20578;-71
2022/06/15 01:30:16;;;;;;;7.75;4.35;;;16.60;99.10;;;;;;5049103;28;20436;-70
2022/06/15 01:33:00;;;;;;;8.05;4.10;;;16.60;99.50;;;;;;5048006;28;20033;-70
2022/06/15 01:35:45;;;;;;;6.65;4.63;;;16.50;99.90;;;;;;5048991;28;20097;-71
2022/06/15 01:38:38;;;;;;;8.55;4.30;;;16.50;99.40;;;;;;5057660;28;20049;-70
2022/06/15 01:41:08;;;;;;;;;;;16.40;99.90;;;;;;5051439;28;20024;-70
2022/06/15 01:43:41;;;;;;;5.47;4.20;;;16.50;99.40;;;;;;5051642;28;19916;-71
2022/06/15 01:46:08;;;;;;;6.60;4.40;;;16.40;99.00;;;;;;5048618;28;20022;-71
2022/06/15 01:48:36;;;;;;;12.65;4.05;;;16.40;99.90;;;;;;5052520;28;20148;-70
2022/06/15 01:51:15;;;;;;;6.35;4.47;;;16.40;99.90;;;;;;5049697;28;20021;-71
2022/06/15 01:53:46;;;;;;;8.27;4.13;;;16.40;99.40;;;;;;5057823;28;20030;-71
2022/06/15 01:56:22;;;;;;;7.20;4.25;;;16.30;99.40;;;;;;5061646;28;20087;-71
2022/06/15 01:59:12;;;;;;;8.20;4.50;;;16.30;99.20;;;;;;5050879;28;20040;-71
2022/06/15 02:02:09;;;;;;;5.45;4.30;;;16.10;99.90;;;;;;5059458;28;20133;-70
2022/06/15 02:05:15;;;;;;;4.60;3.63;;;16.10;99.90;;;;;;5050756;28;20469;-70
2022/06/15 02:08:07;;;;;;;5.40;4.18;;;16.00;99.90;;;;;;5061244;28;20012;-70
2022/06/15 02:10:34;;;;;;;5.72;4.10;;;16.10;99.90;;;;;;5052727;28;20055;-70
2022/06/15 02:13:25;;;;;;;8.98;4.45;;;16.10;99.90;;;;;;5059860;28;20029;-70
2022/06/15 02:16:04;;;;;;;9.48;5.18;;;16.00;99.90;;;;;;5058940;28;20036;-70
2022/06/15 02:18:33;;;;;;;8.85;5.03;;;16.00;99.80;;;;;;5057400;28;20021;-70
2022/06/15 02:21:06;;;;;;;6.00;4.90;;;16.00;99.90;;;;;;5058982;28;20021;-70
2022/06/15 02:23:36;;;;;;;5.70;4.55;;;16.00;99.80;;;;;;5058652;28;20108;-70
2022/06/15 02:26:03;;;;;;;7.00;4.82;;;15.90;99.80;;;;;;5060475;28;20415;-70
2022/06/15 02:28:34;;;;;;;6.90;4.93;;;15.90;99.90;;;;;;5061409;28;20017;-71
2022/06/15 02:31:00;;;;;;;6.90;4.45;;;15.90;99.90;;;;;;5054256;28;20029;-70
2022/06/15 02:33:30;;;;;;;9.35;5.20;;;15.80;99.90;;;;;;5063878;28;20021;-70
2022/06/15 02:35:57;;;;;;;9.90;4.60;;;15.80;99.90;;;;;;5054803;28;20036;-70
2022/06/15 02:38:24;;;;;;;6.97;5.13;;;15.80;99.90;;;;;;5061107;28;20118;-70
2022/06/15 02:40:50;;;;;;;9.68;4.82;;;15.80;99.90;;;;;;5062052;28;20037;-71
2022/06/15 02:43:20;;;;;;;5.82;4.32;;;15.80;99.90;;;;;;5059888;28;20118;-70
2022/06/15 02:45:48;;;;;;;9.45;4.80;;;15.80;99.90;;;;;;5066431;28;20032;-70
2022/06/15 02:48:15;;;;;;;7.53;5.22;;;15.70;99.90;;;;;;5052536;28;20179;-72
2022/06/15 02:50:47;;;;;;;8.38;5.15;;;15.70;99.90;;;;;;5067318;28;20483;-72
2022/06/15 02:53:20;;;;;;;11.07;5.15;;;15.70;99.90;;;;;;5052065;28;20032;-71
2022/06/15 02:55:49;;;;;;;9.65;4.93;;;15.60;99.90;;;;;;5054971;28;20028;-71
2022/06/15 02:58:21;;;;;;;6.95;4.80;;;15.60;99.90;;;;;;5063140;28;20060;-71
2022/06/15 03:00:46;;;;;;;7.75;4.90;;;15.60;99.90;;;;;;5052522;28;20386;-71
2022/06/15 03:03:12;;;;;;;6.90;5.18;;;15.60;99.90;;;;;;5063356;28;20036;-71
2022/06/15 03:05:38;;;;;;;10.32;5.30;;;15.60;99.90;;;;;;5070177;28;20029;-71
2022/06/15 03:08:04;;;;;;;6.85;5.07;;;15.60;99.90;;;;;;5059044;28;20032;-71
2022/06/15 03:10:30;;;;;;;6.90;5.47;;;15.50;99.90;;;;;;5056909;28;20020;-71
2022/06/15 03:12:55;;;;;;;10.75;5.22;;;15.50;99.90;;;;;;5052192;28;20720;-71
2022/06/15 03:15:21;;;;;;;5.95;5.38;;;15.50;99.90;;;;;;5059494;28;20045;-71
2022/06/15 03:17:47;;;;;;;8.55;5.20;;;15.40;99.90;;;;;;5053248;28;20501;-71
2022/06/15 03:20:12;;;;;;;7.32;5.30;;;15.40;99.90;;;;;;5052973;28;20378;-71
2022/06/15 03:22:38;;;;;;;12.85;5.65;;;15.40;99.90;;;;;;5064762;28;20021;-71
2022/06/15 03:25:04;;;;;;;9.00;5.82;;;15.40;99.90;;;;;;5065714;28;20448;-71
2022/06/15 03:27:30;;;;;;;8.57;6.53;;;15.40;99.90;;;;;;5051007;28;20021;-71
2022/06/15 03:29:55;;;;;;;9.27;5.95;;;15.30;99.90;;;;;;5056452;28;20024;-71
2022/06/15 03:32:21;;;;;;;8.50;6.43;;;15.30;99.90;;;;;;5057608;28;20491;-71
2022/06/15 03:34:47;;;;;;;8.82;5.57;;;15.30;99.90;;;;;;5052547;28;20037;-71
2022/06/15 03:37:13;;;;;;;10.35;6.60;;;15.30;99.90;;;;;;5057219;28;20017;-70
2022/06/15 03:39:39;;;;;;;10.27;6.55;;;15.30;99.90;;;;;;5062155;28;20028;-71
2022/06/15 03:42:15;;;;;;;7.85;5.80;;;15.30;99.90;;;;;;5050227;28;20062;-71
2022/06/15 03:44:42;;;;;;;8.75;6.05;;;15.30;99.90;;;;;;5061496;28;20112;-71
2022/06/15 03:47:12;;;;;;;9.32;6.07;;;15.20;99.90;;;;;;5051158;28;20032;-71
2022/06/15 03:49:38;;;;;;;8.85;6.15;;;15.20;99.90;;;;;;5055997;28;20021;-69
2022/06/15 03:52:04;;;;;;;8.95;6.40;;;15.20;99.90;;;;;;5064816;28;20554;-70
2022/06/15 03:54:29;;;;;;;11.23;5.95;;;15.20;99.90;;;;;;5054158;28;20397;-71
2022/06/15 03:56:55;;;;;;;12.70;7.05;;;15.10;99.90;;;;;;5051475;28;20032;-71
2022/06/15 03:59:22;;;;;;;10.65;6.30;;;15.10;99.90;;;;;;5058174;28;20427;-70
2022/06/15 04:01:47;;;;;;;8.82;6.57;;;15.10;99.90;;;;;;5055467;28;20029;-71
2022/06/15 04:04:13;;;;;;;10.07;6.45;;;15.10;99.90;;;;;;5054003;28;20385;-71
2022/06/15 04:06:39;;;;;;;10.60;6.15;;;15.10;99.90;;;;;;5067442;28;20024;-71
2022/06/15 04:09:05;;;;;;;8.30;6.55;;;15.00;99.90;;;;;;5050290;28;20215;-71
2022/06/15 04:14:16;;;;;;;10.27;6.55;;;15.00;99.90;;;;;;5053396;28;20036;-71
2022/06/15 04:16:41;;;;;;;10.57;6.57;;;15.10;99.90;;;;;;5054580;28;20028;-71
2022/06/15 04:19:08;;;;;;;11.57;7.53;;;15.00;99.90;;;;;;5051832;28;20013;-71
2022/06/15 04:21:34;;;;;;;11.52;8.38;;;15.00;99.90;;;;;;5052903;28;20026;-71
2022/06/15 04:24:01;;;;;;;13.05;7.65;;;15.00;99.90;;;;;;5062012;28;20035;-71
2022/06/15 04:26:26;;;;;;;12.52;8.10;;;15.00;99.90;;;;;;5052758;28;20462;-71
2022/06/15 04:28:52;;;;;;;9.05;7.22;;;15.10;99.90;;;;;;5053150;28;20029;-71
2022/06/15 04:31:18;;;;;;;11.43;7.90;;;15.00;99.90;;;;;;5051692;28;20032;-71
2022/06/15 04:33:44;;;;;;;10.32;8.57;;;15.00;99.90;;;;;;5058801;28;20505;-71
2022/06/15 04:36:13;;;;;;;15.38;7.57;;;15.10;99.90;;;;;;5046343;28;20112;-71
2022/06/15 04:38:38;;;;;;;14.48;8.45;;;15.10;99.90;;;;;;5059825;28;20024;-71
2022/06/15 04:41:04;;;;;;;11.05;7.40;;;15.00;99.90;;;;;;5046580;28;20474;-71
2022/06/15 04:43:30;;;;;;;10.90;7.90;;;15.10;99.90;;;;;;5053924;28;20025;-71
2022/06/15 04:45:56;;;;;;;10.55;8.00;;;15.10;99.90;;;;;;5057298;28;20367;-70
2022/06/15 04:48:22;;;;;;;12.98;8.43;;;15.10;99.90;;;;;;5059959;28;20041;-71
2022/06/15 04:50:47;;;;;;;13.45;8.13;;;15.10;99.90;;;;;;5052916;28;20507;-71
2022/06/15 04:53:13;;;;;;;17.10;10.43;;;15.20;99.90;;;;;;5065305;28;20083;-71
2022/06/15 04:55:39;;;;;;;11.15;8.93;;;15.20;99.90;;;;;;5055751;28;20029;-71
2022/06/15 04:58:05;;;;;;;12.02;8.18;;;15.20;99.90;;;;;;5052237;28;20083;-71
2022/06/15 05:00:40;;;;;;;13.05;8.60;;;15.20;99.90;;;;;;5051455;28;20488;-71
2022/06/15 05:03:07;;;;;;;13.57;8.70;;;15.20;99.90;;;;;;5054576;28;20021;-71
2022/06/15 05:05:33;;;;;;;11.05;8.57;;;15.30;99.90;;;;;;5051489;28;20083;-71
2022/06/15 05:07:59;;;;;;;13.63;8.73;;;15.30;99.90;;;;;;5051052;28;20027;-71
2022/06/15 05:10:26;;;;;;;15.55;8.57;;;15.30;99.90;;;;;;5056204;28;20024;-71
2022/06/15 05:12:53;;;;;;;10.15;8.32;;;15.30;99.90;;;;;;5049874;28;20486;-71
2022/06/15 05:15:19;;;;;;;14.27;8.98;;;15.30;99.90;;;;;;5060170;28;20040;-71
2022/06/15 05:17:46;;;;;;;13.85;7.72;;;15.30;99.90;;;;;;5060484;28;20028;-71
2022/06/15 05:20:15;;;;;;;11.02;7.90;;;15.30;99.90;;;;;;5056151;28;20090;-70
2022/06/15 05:22:42;;;;;;;10.18;8.05;;;15.40;99.90;;;;;;5059482;28;20099;-70
2022/06/15 05:25:09;;;;;;;14.68;7.63;;;15.40;99.90;;;;;;5058059;28;20052;-71
2022/06/15 05:27:39;;;;;;;14.18;7.63;;;15.40;99.90;;;;;;5053637;28;20021;-71
2022/06/15 05:30:05;;;;;;;13.02;8.27;;;15.40;99.90;;;;;;5058901;28;20043;-71
2022/06/15 05:32:31;;;;;;;14.63;8.35;;;15.40;99.90;;;;;;5056633;28;20465;-70
2022/06/15 05:34:57;;;;;;;12.23;8.05;;;15.50;99.90;;;;;;5053750;28;20032;-70
2022/06/15 05:37:23;;;;;;;14.80;8.48;;;15.40;99.90;;;;;;5051955;28;20025;-71
2022/06/15 05:39:49;;;;;;;16.30;8.70;;;15.50;99.90;;;;;;5053912;28;20040;-71
2022/06/15 05:42:15;;;;;;;10.35;8.02;;;15.40;99.90;;;;;;5055877;28;20056;-70
2022/06/15 05:44:48;;;;;;;13.60;8.50;;;15.50;99.90;;;;;;5060031;28;20032;-71
2022/06/15 05:47:14;;;;;;;;;;;15.60;99.90;;;;;;5067751;28;20031;-69
2022/06/15 05:49:40;;;;;;;11.45;8.15;;;15.60;99.90;;;;;;5056425;28;19909;-70
2022/06/15 05:52:06;;;;;;;12.73;9.05;;;15.60;99.90;;;;;;5049959;28;20163;-71
2022/06/15 05:54:32;;;;;;;13.40;7.53;;;15.60;99.90;;;;;;5052919;28;20495;-71
2022/06/15 05:56:57;;;;;;;14.35;8.55;;;15.70;99.90;;;;;;5060109;28;20100;-70
2022/06/15 05:59:23;;;;;;;15.05;8.57;;;15.70;99.90;;;;;;5047472;28;20485;-71
2022/06/15 06:01:49;;;;;;;13.07;8.48;;;15.70;99.90;;;;;;5056839;28;20060;-71
2022/06/15 06:04:16;;;;;;;15.20;9.02;;;15.80;99.90;;;;;;5053699;28;20021;-71
2022/06/15 06:06:43;;;;;;;12.40;8.95;;;15.80;99.90;;;;;;5056047;28;20044;-71
2022/06/15 06:09:12;;;;;;;12.93;8.73;;;15.80;99.90;;;;;;5052259;28;20056;-71
2022/06/15 06:11:38;;;;;;;13.57;8.02;;;15.90;99.90;;;;;;5054623;28;20087;-71
2022/06/15 06:14:04;;;;;;;14.23;9.15;;;16.00;99.90;;;;;;5057598;28;20036;-71
2022/06/15 06:16:29;;;;;;;15.00;10.52;;;16.00;99.90;;;;;;5059249;28;20100;-71
2022/06/15 06:18:55;;;;;;;11.35;8.57;;;16.00;99.90;;;;;;5060241;28;20112;-72
2022/06/15 06:21:21;;;;;;;12.77;9.15;;;16.10;99.90;;;;;;5051223;28;20417;-71
2022/06/15 06:23:48;;;;;;;16.52;9.38;;;16.10;99.90;;;;;;5049033;28;20385;-71
2022/06/15 06:26:28;;;;;;;14.02;8.88;;;16.10;99.90;;;;;;5048141;28;20021;-71
2022/06/15 06:28:56;;;;;;;18.00;10.90;;;16.10;99.90;;;;;;5056039;28;20517;-71
2022/06/15 06:31:22;;;;;;;15.45;8.75;;;16.20;99.90;;;;;;5055868;28;20509;-72
2022/06/15 06:33:49;;;;;;;20.20;9.65;;;16.40;99.90;;;;;;5048932;28;20037;-71
2022/06/15 06:36:20;;;;;;;13.15;9.73;;;16.40;99.90;;;;;;5054893;28;20138;-71
2022/06/15 06:38:46;;;;;;;14.98;9.60;;;16.50;99.90;;;;;;5055805;28;20424;-71
2022/06/15 06:41:18;;;;;;;15.68;9.60;;;16.70;99.90;;;;;;5050078;28;20046;-71
2022/06/15 06:43:44;;;;;;;14.93;9.25;;;16.80;99.90;;;;;;5054931;28;20032;-71
2022/06/15 06:46:10;;;;;;;15.48;9.20;;;17.00;99.90;;;;;;5058765;28;20099;-71
2022/06/15 06:48:35;;;;;;;15.88;10.32;;;17.20;99.90;;;;;;5050893;28;20025;-71
2022/06/15 06:51:01;;;;;;;15.55;9.55;;;17.30;99.90;;;;;;5060990;28;20028;-72
2022/06/15 06:53:26;;;;;;;14.75;9.48;;;17.60;99.90;;;;;;5054776;28;20116;-72
2022/06/15 06:55:52;;;;;;;14.00;9.23;;;17.70;99.90;;;;;;5050372;28;20469;-71
2022/06/15 06:58:18;;;;;;;17.45;9.40;;;17.80;99.90;;;;;;5051196;28;20036;-71
2022/06/15 07:00:43;;;;;;;15.48;8.60;;;18.10;99.90;;;;;;5051533;28;20036;-71
2022/06/15 07:03:09;;;;;;;15.32;9.23;;;18.30;99.90;;;;;;5047950;28;20037;-71
2022/06/15 07:05:36;;;;;;;13.75;8.13;;;18.50;99.90;;;;;;5049750;28;20025;-72
2022/06/15 07:08:04;;;;;;;19.50;10.15;;;18.80;99.90;;;;;;5054438;28;20045;-71
2022/06/15 07:10:30;;;;;;;16.88;8.93;;;18.90;99.90;;;;;;5058070;28;20012;-71
2022/06/15 07:12:56;;;;;;;14.32;8.88;;;19.00;99.90;;;;;;5057915;28;20029;-71
2022/06/15 07:15:22;;;;;;;18.77;7.97;;;19.00;99.90;;;;;;5053332;28;20068;-72
2022/06/15 07:17:47;;;;;;;15.00;8.30;;;19.30;99.90;;;;;;5058895;28;20049;-72
2022/06/15 07:20:13;;;;;;;12.15;7.75;;;19.50;99.90;;;;;;5052051;28;20025;-72
2022/06/15 07:22:39;;;;;;;12.82;7.43;;;19.60;99.90;;;;;;5060018;28;20455;-71
2022/06/15 07:25:06;;;;;;;14.57;7.95;;;19.90;99.90;;;;;;5056224;28;20017;-72
2022/06/15 07:27:38;;;;;;;15.77;8.45;;;20.00;99.90;;;;;;5064187;28;20425;-72
2022/06/15 07:30:08;;;;;;;15.35;7.90;;;20.20;99.90;;;;;;5060846;28;20423;-72
2022/06/15 07:32:34;;;;;;;14.25;7.63;;;20.30;99.90;;;;;;5056548;28;20018;-72
2022/06/15 07:34:59;;;;;;;16.55;8.25;;;20.30;99.90;;;;;;5046977;28;20041;-72
2022/06/15 07:37:25;;;;;;;11.75;6.38;;;20.40;99.90;;;;;;5058662;28;20018;-72
2022/06/15 07:39:51;;;;;;;12.27;7.25;;;20.60;99.90;;;;;;5051252;28;20029;-72
2022/06/15 07:42:16;;;;;;;15.43;7.72;;;20.80;99.90;;;;;;5057145;28;20017;-73
2022/06/15 07:44:42;;;;;;;15.02;8.40;;;20.90;99.90;;;;;;5053907;28;20036;-72
2022/06/15 07:49:54;;;;;;;11.18;6.90;;;21.20;99.90;;;;;;5049760;28;20108;-73
2022/06/15 07:52:25;;;;;;;13.52;6.18;;;21.40;99.90;;;;;;5053678;28;20035;-72
2022/06/15 07:54:51;;;;;;;14.32;6.88;;;21.60;99.90;;;;;;5052305;28;20063;-73
2022/06/15 07:57:17;;;;;;;9.13;6.80;;;21.80;99.90;;;;;;5055687;28;20473;-73
2022/06/15 07:59:43;;;;;;;11.82;7.30;;;21.90;99.90;;;;;;5058295;28;20027;-72
2022/06/15 08:02:09;;;;;;;10.13;6.22;;;22.00;99.90;;;;;;5059548;28;20931;-72
2022/06/15 08:04:35;;;;;;;8.05;5.22;;;22.10;99.90;;;;;;5047430;28;20481;-73
2022/06/15 08:07:01;;;;;;;9.82;5.20;;;22.10;99.90;;;;;;5060218;28;20029;-72
2022/06/15 08:09:27;;;;;;;11.98;7.05;;;22.40;99.90;;;;;;5055491;28;20474;-73
2022/06/15 08:14:40;;;;;;;9.40;6.15;;;22.50;99.90;;;;;;5064820;28;20505;-73
2022/06/15 08:17:10;;;;;;;12.85;6.65;;;22.90;99.70;;;;;;5046126;28;20103;-73
2022/06/15 08:19:39;;;;;;;13.80;5.55;;;22.90;99.90;;;;;;5050051;28;20151;-72
2022/06/15 08:22:07;;;;;;;9.07;5.07;;;22.90;99.90;;;;;;5053656;28;20017;-73
2022/06/15 08:24:33;;;;;;;9.80;5.55;;;23.10;99.90;;;;;;5048477;28;20048;-72
2022/06/15 08:27:00;;;;;;;8.32;5.10;;;23.20;98.60;;;;;;5054423;28;20482;-71
2022/06/15 08:29:26;;;;;;;10.57;6.65;;;23.20;98.80;;;;;;5047800;28;20035;-69
2022/06/15 08:31:56;;;;;;;10.57;5.78;;;23.20;98.10;;;;;;5055261;28;20025;-73
2022/06/15 08:34:23;;;;;;;13.77;5.50;;;23.20;98.60;;;;;;5056551;28;20435;-73
2022/06/15 08:36:49;;;;;;;10.15;5.53;;;23.30;98.60;;;;;;5060777;28;20032;-73
2022/06/15 08:39:15;;;;;;;9.15;4.93;;;23.50;98.60;;;;;;5067791;28;20025;-72
2022/06/15 08:42:02;;;;;;;10.30;4.85;;;23.70;98.80;;;;;;5048324;28;20104;-72
2022/06/15 08:44:46;;;;;;;11.70;6.03;;;23.80;97.90;;;;;;5057848;28;20036;-72
2022/06/15 08:47:28;;;;;;;13.30;5.35;;;23.90;97.40;;;;;;5053196;28;20069;-73
2022/06/15 08:50:08;;;;;;;9.10;5.30;;;24.10;96.20;;;;;;5052770;28;20019;-72
2022/06/15 08:52:39;;;;;;;10.32;4.85;;;24.10;98.10;;;;;;5051686;28;20099;-72
2022/06/15 08:55:12;;;;;;;8.77;4.45;;;24.00;96.70;;;;;;5044906;28;20041;-72
2022/06/15 08:57:46;;;;;;;7.55;4.43;;;24.10;96.30;;;;;;5049860;28;20429;-72
2022/06/15 09:00:21;;;;;;;8.98;5.50;;;24.20;96.80;;;;;;5054405;28;20029;-72
2022/06/15 09:03:16;;;;;;;10.38;4.18;;;24.30;94.70;;;;;;5045495;28;20037;-72
2022/06/15 09:05:56;;;;;;;6.00;4.90;;;24.50;96.30;;;;;;5061171;28;20400;-73
2022/06/15 09:08:43;;;;;;;8.48;4.45;;;24.80;94.90;;;;;;5055043;28;20021;-72
2022/06/15 09:11:27;;;;;;;10.88;4.80;;;24.80;95.90;;;;;;5051379;28;20111;-71
2022/06/15 09:14:11;;;;;;;8.82;4.70;;;24.90;94.20;;;;;;5055827;28;20078;-70
2022/06/15 09:17:03;;;;;;;9.38;4.63;;;24.90;94.20;;;;;;5051377;28;20132;-72
2022/06/15 09:19:35;;;;;;;14.40;4.47;;;24.90;95.60;;;;;;5050081;28;20024;-72
2022/06/15 09:22:08;;;;;;;10.57;5.65;;;25.10;94.70;;;;;;5055535;28;20372;-73
2022/06/15 09:24:47;;;;;;;9.15;4.78;;;25.10;92.50;;;;;;5057132;28;20114;-71
2022/06/15 09:27:22;;;;;;;9.15;4.25;;;25.20;92.60;;;;;;5052461;28;20473;-72
2022/06/15 09:29:54;;;;;;;9.27;4.53;;;25.20;94.10;;;;;;5055822;28;20106;-72
2022/06/15 09:32:24;;;;;;;9.60;5.13;;;25.30;93.70;;;;;;5057808;28;20025;-71
2022/06/15 09:35:06;;;;;;;9.82;4.15;;;25.30;92.30;;;;;;5047518;28;20029;-72
2022/06/15 09:37:35;;;;;;;9.13;4.22;;;25.40;93.10;;;;;;5058242;28;20059;-72
2022/06/15 09:40:03;;;;;;;10.98;5.63;;;25.60;93.20;;;;;;5047756;28;20045;-72
2022/06/15 09:43:11;;;;;;;8.32;5.10;;;25.60;92.00;;;;;;5029768;28;20040;-72
2022/06/15 09:46:11;;;;;;;10.45;5.03;;;25.80;93.70;;;;;;5050593;28;20455;-73
2022/06/15 09:49:23;;;;;;;8.85;4.80;;;26.00;92.00;;;;;;5057018;28;20501;-72
2022/06/15 09:52:10;;;;;;;12.73;4.97;;;26.20;93.70;;;;;;5056727;28;20048;-72
2022/06/15 09:55:02;;;;;;;10.15;5.03;;;26.00;93.20;;;;;;5062531;28;20032;-73
2022/06/15 09:57:28;;;;;;;8.70;4.82;;;26.30;93.40;;;;;;5057745;28;20410;-72
2022/06/15 09:59:54;;;;;;;10.73;5.15;;;26.30;92.30;;;;;;5058856;28;20020;-72
2022/06/15 10:02:26;;;;;;;10.05;5.00;;;26.30;92.20;;;;;;5059611;28;20489;-71
2022/06/15 10:04:53;;;;;;;9.90;4.85;;;26.30;92.50;;;;;;5047686;28;20036;-72
2022/06/15 10:07:32;;;;;;;10.15;5.50;;;26.40;91.30;;;;;;5047944;28;20184;-71
2022/06/15 10:10:14;;;;;;;10.38;4.35;;;26.50;92.20;;;;;;5046877;28;20100;-72
2022/06/15 10:13:02;;;;;;;7.68;4.32;;;26.60;91.80;;;;;;5051013;28;20076;-72
2022/06/15 10:15:48;;;;;;;10.73;5.22;;;26.60;91.80;;;;;;5054669;28;20032;-73
2022/06/15 10:18:41;;;;;;;9.02;5.07;;;26.80;92.90;;;;;;5054645;28;20088;-72
2022/06/15 10:21:13;;;;;;;8.55;4.45;;;26.80;91.40;;;;;;5055459;28;20144;-72
2022/06/15 10:23:58;;;;;;;10.48;5.50;;;27.00;91.70;;;;;;5050052;28;20067;-71
2022/06/15 10:26:29;;;;;;;10.38;5.65;;;27.10;90.30;;;;;;5059459;28;20110;-72
2022/06/15 10:28:56;;;;;;;10.35;5.10;;;27.20;90.10;;;;;;5050275;28;20040;-72
2022/06/15 10:31:33;;;;;;;7.90;4.88;;;27.20;90.40;;;;;;5054882;28;20029;-72
2022/06/15 10:34:21;;;;;;;11.45;5.43;;;27.30;90.00;;;;;;5046783;28;20039;-72
2022/06/15 10:36:54;;;;;;;11.68;4.80;;;27.30;90.70;;;;;;5058288;28;20037;-71
2022/06/15 10:39:31;;;;;;;9.18;4.70;;;27.30;90.30;;;;;;5058284;28;20152;-71
2022/06/15 10:42:07;;;;;;;11.90;6.05;;;27.40;92.30;;;;;;5053699;28;20029;-73
2022/06/15 10:44:40;;;;;;;12.23;5.13;;;27.50;91.00;;;;;;5051736;28;20115;-72
2022/06/15 10:47:18;;;;;;;8.93;4.78;;;27.70;89.30;;;;;;5054073;28;20444;-72
2022/06/15 10:49:50;;;;;;;12.77;5.05;;;27.80;89.90;;;;;;5058984;28;20686;-72
2022/06/15 10:52:25;;;;;;;12.50;5.25;;;27.80;89.70;;;;;;5054474;28;20132;-72
2022/06/15 11:03:38;;;;;;;11.98;4.97;;;28.10;87.80;;;;;;5051693;28;20093;-72
2022/06/15 11:06:04;;;;;;;10.05;4.88;;;27.80;89.10;;;;;;5054641;28;20021;-71
2022/06/15 11:08:33;;;;;;;10.15;5.50;;;27.90;88.80;;;;;;5050675;28;20477;-73
2022/06/15 11:11:34;;;;;;;8.40;5.43;;;27.70;90.30;;;;;;5055554;28;20103;-73
2022/06/15 11:14:15;;;;;;;8.55;4.70;;;28.00;90.10;;;;;;5035535;28;20048;-73
2022/06/15 11:19:27;;;;;;;7.95;5.03;;;28.20;86.50;;;;;;5051055;28;20032;-73
2022/06/15 11:21:55;;;;;;;7.25;4.07;;;28.30;87.60;;;;;;5049146;28;20103;-72
2022/06/15 11:24:50;;;;;;;9.85;4.75;;;28.30;90.80;;;;;;5049600;28;20039;-72
2022/06/15 11:27:35;;;;;;;5.47;4.35;;;28.20;85.20;;;;;;5048161;28;20104;-73
2022/06/15 11:30:23;;;;;;;9.23;4.30;;;28.40;90.00;;;;;;5049122;28;20937;-71
2022/06/15 11:33:24;;;;;;;7.60;4.65;;;28.40;89.50;;;;;;5048833;28;20029;-73
2022/06/15 11:36:06;;;;;;;7.72;3.63;;;28.50;85.80;;;;;;5041936;28;20417;-72
2022/06/15 11:38:54;;;;;;;6.45;3.92;;;28.50;87.20;;;;;;5052436;28;20462;-72
2022/06/15 11:41:24;;;;;;;10.23;3.85;;;28.50;89.50;;;;;;5043295;28;20143;-73
2022/06/15 11:43:52;;;;;;;8.32;3.70;;;28.50;84.10;;;;;;5054291;28;20037;-73
2022/06/15 11:46:50;;;;;;;9.95;3.97;;;28.60;89.10;;;;;;5055696;28;20021;-72
2022/06/15 11:49:24;;;;;;;9.90;4.03;;;28.50;86.30;;;;;;5055515;28;20028;-72
2022/06/15 11:52:45;;;;;;;9.48;4.20;;;28.50;87.70;;;;;;5056101;28;20060;-73
2022/06/15 11:55:22;;;;;;;7.35;3.80;;;28.70;84.70;;;;;;5061355;28;20064;-72
2022/06/15 11:58:12;;;;;;;7.15;3.55;;;28.70;82.70;;;;;;5054054;28;20020;-72
2022/06/15 12:00:51;;;;;;;6.47;3.20;;;28.80;85.20;;;;;;5052105;28;20081;-73
2022/06/15 12:03:20;;;;;;;5.55;3.10;;;28.90;83.50;;;;;;5045923;28;20029;-72
2022/06/15 12:06:10;;;;;;;8.05;3.67;;;29.00;85.10;;;;;;5061163;28;20133;-72
2022/06/15 12:08:44;;;;;;;4.47;3.33;;;29.10;87.50;;;;;;5051384;28;20037;-73
2022/06/15 12:14:29;;;;;;;5.93;4.63;;;29.10;88.70;;;;;;5054384;28;20064;-72
2022/06/15 12:17:04;;;;;;;8.90;4.20;;;29.20;86.90;;;;;;5052283;28;20068;-72
2022/06/15 12:19:45;;;;;;;9.57;4.00;;;29.40;86.80;;;;;;5051458;28;20021;-73
2022/06/15 12:22:24;;;;;;;9.40;4.60;;;29.40;87.70;;;;;;5047502;28;20071;-72
2022/06/15 12:25:08;;;;;;;8.45;4.25;;;29.30;85.50;;;;;;5053279;28;20021;-73
2022/06/15 12:27:48;;;;;;;8.27;3.88;;;29.00;86.90;;;;;;5052262;28;20036;-72
2022/06/15 12:30:19;;;;;;;10.80;4.93;;;29.30;87.30;;;;;;5051010;28;20065;-73
2022/06/15 12:33:20;;;;;;;6.55;3.75;;;29.30;89.10;;;;;;5051088;28;20441;-71
2022/06/15 12:36:07;;;;;;;8.70;4.63;;;29.30;88.10;;;;;;5053712;28;20034;-73
2022/06/15 12:38:49;;;;;;;9.25;4.65;;;29.30;88.60;;;;;;5055071;28;20021;-72
2022/06/15 12:44:17;;;;;;;7.50;3.60;;;29.60;86.50;;;;;;5048726;28;20047;-72
2022/06/15 12:46:45;;;;;;;10.77;3.95;;;29.50;88.50;;;;;;5054171;28;20024;-72
2022/06/15 12:49:30;;;;;;;9.88;4.05;;;29.70;88.50;;;;;;5050331;28;20021;-72
2022/06/15 12:52:15;;;;;;;7.22;3.67;;;29.70;85.20;;;;;;5051648;28;20036;-72
2022/06/15 12:54:43;;;;;;;8.77;4.30;;;29.80;86.10;;;;;;5049038;28;20032;-72
2022/06/15 12:57:50;;;;;;;7.80;2.83;;;29.90;84.80;;;;;;5051389;28;20036;-72
2022/06/15 13:00:34;;;;;;;10.18;3.88;;;29.90;83.70;;;;;;5050844;28;20031;-71
2022/06/15 13:03:27;;;;;;;8.82;3.85;;;29.60;85.00;;;;;;5047832;28;20063;-73
2022/06/15 13:06:30;;;;;;;6.45;3.35;;;29.70;82.10;;;;;;5057515;28;20491;-72
2022/06/15 13:09:14;;;;;;;6.20;3.85;;;29.60;81.50;;;;;;5061477;28;20025;-72
2022/06/15 13:11:59;;;;;;;7.68;3.50;;;29.70;81.30;;;;;;5050329;28;20738;-72
2022/06/15 13:14:46;;;;;;;9.48;3.63;;;29.70;81.10;;;;;;5053266;28;20067;-72
2022/06/15 13:17:18;;;;;;;7.47;3.65;;;29.50;82.70;;;;;;5052650;28;20048;-72
2022/06/15 13:20:02;;;;;;;6.80;3.42;;;29.60;79.40;;;;;;5052186;28;20048;-72
2022/06/15 13:22:32;;;;;;;6.03;3.08;;;29.70;82.90;;;;;;5054543;28;20090;-72
2022/06/15 13:25:03;;;;;;;6.15;3.20;;;29.80;88.20;;;;;;5049419;28;20091;-73
2022/06/15 13:28:02;;;;;;;6.68;3.80;;;29.80;85.50;;;;;;5050170;28;20081;-72
2022/06/15 13:30:31;;;;;;;7.15;3.92;;;29.80;84.70;;;;;;5045230;28;20124;-72
2022/06/15 13:33:06;;;;;;;8.07;3.42;;;29.90;84.90;;;;;;5058722;28;20033;-72
2022/06/15 13:35:41;;;;;;;6.13;4.00;;;29.80;83.00;;;;;;5054218;28;20468;-71
2022/06/15 13:38:16;;;;;;;7.57;3.97;;;29.70;86.10;;;;;;5055260;28;20485;-73
2022/06/15 13:40:53;;;;;;;5.47;3.55;;;29.70;82.00;;;;;;5055979;28;20079;-73